createdAt,value
2022-08-24T00:00:00.388Z,70.64
2022-08-24T00:01:00.330Z,70.62
2022-08-24T00:02:00.555Z,70.66
2022-08-24T00:03:00.737Z,70.59
2022-08-24T00:04:00.718Z,70.65
2022-08-24T00:05:00.908Z,70.66
2022-08-24T00:06:00.956Z,70.54
2022-08-24T00:07:01.079Z,70.54
2022-08-24T00:08:01.159Z,70.47
2022-08-24T00:09:01.296Z,70.50
2022-08-24T00:10:01.668Z,70.54
2022-08-24T00:11:01.565Z,70.43
2022-08-24T00:12:01.677Z,70.59
2022-08-24T00:13:01.776Z,70.45
2022-08-24T00:14:01.875Z,70.46
2022-08-24T00:15:02.045Z,70.55
2022-08-24T00:16:02.216Z,70.62
2022-08-24T00:17:02.275Z,70.69
2022-08-24T00:18:02.504Z,70.78
2022-08-24T00:19:02.514Z,70.89
2022-08-24T00:20:02.782Z,70.91
2022-08-24T00:21:02.704Z,70.98
2022-08-24T00:22:02.874Z,71.05
2022-08-24T00:23:02.963Z,71.06
2022-08-24T00:24:03.236Z,71.18
2022-08-24T00:25:03.314Z,71.13
2022-08-24T00:26:03.443Z,71.10
2022-08-24T00:27:03.450Z,71.08
2022-08-24T00:28:03.862Z,71.10
2022-08-24T00:29:07.401Z,71.16
2022-08-24T00:30:03.903Z,71.21
2022-08-24T00:31:03.896Z,71.22
2022-08-24T00:32:04.115Z,71.27
2022-08-24T00:33:04.252Z,71.18
2022-08-24T00:34:04.312Z,71.11
2022-08-24T00:35:04.433Z,71.11
2022-08-24T00:36:04.882Z,71.16
2022-08-24T00:37:04.669Z,71.24
2022-08-24T00:38:05.300Z,71.28
2022-08-24T00:39:04.961Z,71.37
2022-08-24T00:40:05.121Z,71.38
2022-08-24T00:41:05.181Z,71.38
2022-08-24T00:42:05.337Z,71.42
2022-08-24T00:43:05.520Z,71.43
2022-08-24T00:44:05.570Z,71.55
2022-08-24T00:45:05.670Z,71.57
2022-08-24T00:46:05.816Z,71.68
2022-08-24T00:47:05.900Z,71.69
2022-08-24T00:48:06.081Z,71.77
2022-08-24T00:49:06.280Z,71.81
2022-08-24T00:50:06.244Z,71.93
2022-08-24T00:51:06.339Z,72.05
2022-08-24T00:52:06.460Z,72.22
2022-08-24T00:53:06.731Z,72.30
2022-08-24T00:54:06.681Z,72.43
2022-08-24T00:55:06.838Z,72.50
2022-08-24T00:56:06.940Z,72.48
2022-08-24T00:57:07.026Z,72.48
2022-08-24T00:58:07.291Z,72.54
2022-08-24T00:59:07.348Z,72.59
2022-08-24T01:00:07.429Z,72.60
2022-08-24T01:01:14.600Z,72.67
2022-08-24T01:02:15.179Z,72.82
2022-08-24T01:03:08.774Z,72.95
2022-08-24T01:04:07.985Z,73.06
2022-08-24T01:05:08.020Z,73.11
2022-08-24T01:06:15.627Z,73.15
2022-08-24T01:07:08.242Z,73.35
2022-08-24T01:08:08.396Z,73.39
2022-08-24T01:09:08.708Z,73.44
2022-08-24T01:10:08.593Z,73.48
2022-08-24T01:11:08.722Z,73.67
2022-08-24T01:12:08.812Z,73.82
2022-08-24T01:13:08.951Z,74.05
2022-08-24T01:14:09.072Z,74.22
2022-08-24T01:15:09.263Z,74.45
2022-08-24T01:16:09.361Z,74.61
2022-08-24T01:17:09.451Z,74.84
2022-08-24T01:18:09.581Z,74.92
2022-08-24T01:19:09.892Z,74.97
2022-08-24T01:20:10.010Z,74.87
2022-08-24T01:21:10.000Z,74.78
2022-08-24T01:22:10.150Z,74.72
2022-08-24T01:23:10.250Z,74.66
2022-08-24T01:24:10.590Z,74.64
2022-08-24T01:25:10.492Z,74.69
2022-08-24T01:26:10.601Z,74.67
2022-08-24T01:27:10.674Z,74.63
2022-08-24T01:28:10.830Z,74.66
2022-08-24T01:29:10.949Z,74.72
2022-08-24T01:30:11.159Z,74.73
2022-08-24T01:31:11.228Z,74.68
2022-08-24T01:32:11.305Z,74.62
2022-08-24T01:33:11.428Z,74.53
2022-08-24T01:34:11.588Z,74.45
2022-08-24T01:35:11.689Z,74.30
2022-08-24T01:36:11.789Z,74.21
2022-08-24T01:37:11.877Z,74.15
2022-08-24T01:38:12.017Z,74.14
2022-08-24T01:39:12.337Z,74.11
2022-08-24T01:40:12.465Z,74.05
2022-08-24T01:41:12.536Z,74.03
2022-08-24T01:42:12.556Z,74.09
2022-08-24T01:43:12.667Z,74.20
2022-08-24T01:44:12.765Z,74.25
2022-08-24T01:45:13.055Z,74.34
2022-08-24T01:46:13.223Z,74.43
2022-08-24T01:47:13.159Z,74.54
2022-08-24T01:48:13.275Z,74.62
2022-08-24T01:49:13.404Z,74.68
2022-08-24T01:50:13.737Z,74.75
2022-08-24T01:51:13.628Z,74.83
2022-08-24T01:52:13.765Z,74.81
2022-08-24T01:53:13.910Z,74.81
2022-08-24T01:54:14.083Z,74.87
2022-08-24T01:55:14.275Z,74.91
2022-08-24T01:56:14.396Z,75.02
2022-08-24T01:57:15.009Z,75.02
2022-08-24T01:58:14.564Z,74.97
2022-08-24T01:59:14.704Z,74.93
2022-08-24T02:00:14.996Z,74.88
2022-08-24T02:01:15.013Z,74.84
2022-08-24T02:02:15.185Z,74.77
2022-08-24T02:03:15.297Z,74.74
2022-08-24T02:04:17.696Z,74.76
2022-08-24T02:05:15.606Z,74.64
2022-08-24T02:06:15.755Z,74.52
2022-08-24T02:07:15.772Z,74.43
2022-08-24T02:08:15.860Z,74.56
2022-08-24T02:09:15.953Z,74.64
2022-08-24T02:10:16.162Z,74.69
2022-08-24T02:11:16.372Z,74.82
2022-08-24T02:12:16.354Z,74.88
2022-08-24T02:13:16.452Z,74.84
2022-08-24T02:14:16.582Z,74.80
2022-08-24T02:15:16.702Z,74.80
2022-08-24T02:16:16.948Z,74.78
2022-08-24T02:17:16.930Z,74.63
2022-08-24T02:18:17.081Z,74.71
2022-08-24T02:19:17.163Z,74.78
2022-08-24T02:20:17.321Z,74.80
2022-08-24T02:21:17.503Z,74.87
2022-08-24T02:22:17.569Z,74.87
2022-08-24T02:23:17.690Z,74.96
2022-08-24T02:24:17.777Z,74.94
2022-08-24T02:25:17.918Z,74.97
2022-08-24T02:26:18.209Z,74.99
2022-08-24T02:27:18.200Z,74.94
2022-08-24T02:28:18.349Z,74.89
2022-08-24T02:29:18.439Z,74.91
2022-08-24T02:30:18.579Z,74.85
2022-08-24T02:31:19.025Z,74.83
2022-08-24T02:32:18.829Z,74.93
2022-08-24T02:33:18.909Z,74.97
2022-08-24T02:34:19.052Z,75.06
2022-08-24T02:35:19.198Z,75.15
2022-08-24T02:36:25.050Z,75.24
2022-08-24T02:37:20.418Z,75.38
2022-08-24T02:38:19.570Z,75.48
2022-08-24T02:39:19.667Z,75.49
2022-08-24T02:40:19.924Z,75.51
2022-08-24T02:41:20.087Z,75.57
2022-08-24T02:42:20.208Z,75.62
2022-08-24T02:43:20.198Z,75.62
2022-08-24T02:44:20.327Z,75.67
2022-08-24T02:45:20.466Z,75.71
2022-08-24T02:46:20.878Z,75.70
2022-08-24T02:47:20.736Z,75.77
2022-08-24T02:48:20.826Z,75.79
2022-08-24T02:49:20.984Z,75.82
2022-08-24T02:50:21.112Z,75.85
2022-08-24T02:51:21.287Z,75.91
2022-08-24T02:52:21.326Z,75.99
2022-08-24T02:53:21.485Z,76.09
2022-08-24T02:54:21.575Z,76.18
2022-08-24T02:55:21.753Z,76.22
2022-08-24T02:56:21.980Z,76.21
2022-08-24T02:57:21.975Z,76.21
2022-08-24T02:58:22.072Z,76.12
2022-08-24T02:59:22.185Z,76.10
2022-08-24T03:00:22.272Z,76.13
2022-08-24T03:01:23.972Z,76.16
2022-08-24T03:02:22.567Z,76.22
2022-08-24T03:03:22.657Z,76.18
2022-08-24T03:04:22.759Z,76.17
2022-08-24T03:05:22.866Z,76.12
2022-08-24T03:06:23.113Z,76.20
2022-08-24T03:07:23.072Z,76.11
2022-08-24T03:08:23.172Z,76.02
2022-08-24T03:09:23.535Z,76.05
2022-08-24T03:10:23.462Z,76.03
2022-08-24T03:11:27.024Z,76.07
2022-08-24T03:12:23.872Z,76.08
2022-08-24T03:13:23.872Z,76.05
2022-08-24T03:14:23.971Z,76.01
2022-08-24T03:15:24.076Z,75.97
2022-08-24T03:16:24.211Z,75.93
2022-08-24T03:17:24.479Z,75.92
2022-08-24T03:18:24.808Z,75.86
2022-08-24T03:19:24.561Z,75.79
2022-08-24T03:20:24.700Z,75.79
2022-08-24T03:21:24.879Z,75.76
2022-08-24T03:22:25.051Z,75.76
2022-08-24T03:23:25.314Z,75.78
2022-08-24T03:24:25.240Z,75.74
2022-08-24T03:25:25.397Z,75.78
2022-08-24T03:26:25.509Z,75.77
2022-08-24T03:27:25.681Z,75.85
2022-08-24T03:28:25.739Z,76.07
2022-08-24T03:29:25.869Z,76.22
2022-08-24T03:30:26.005Z,76.26
2022-08-24T03:31:26.080Z,76.16
2022-08-24T03:32:26.358Z,76.21
2022-08-24T03:33:26.359Z,76.13
2022-08-24T03:34:26.451Z,76.06
2022-08-24T03:35:26.591Z,76.08
2022-08-24T03:36:26.749Z,76.21
2022-08-24T03:37:26.917Z,76.14
2022-08-24T03:38:26.958Z,76.51
2022-08-24T03:39:27.048Z,76.24
2022-08-24T03:40:27.157Z,76.16
2022-08-24T03:41:27.358Z,76.08
2022-08-24T03:42:27.428Z,76.25
2022-08-24T03:43:27.528Z,76.27
2022-08-24T03:44:27.615Z,76.30
2022-08-24T03:45:27.747Z,76.43
2022-08-24T03:46:28.017Z,76.58
2022-08-24T03:47:28.007Z,76.68
2022-08-24T03:48:28.148Z,76.76
2022-08-24T03:49:28.291Z,76.83
2022-08-24T03:50:28.505Z,76.89
2022-08-24T03:51:28.580Z,76.97
2022-08-24T03:52:33.446Z,77.08
2022-08-24T03:53:29.777Z,77.20
2022-08-24T03:54:28.876Z,77.23
2022-08-24T03:55:29.036Z,77.18
2022-08-24T03:56:29.095Z,77.15
2022-08-24T03:57:29.177Z,77.12
2022-08-24T03:58:29.325Z,77.13
2022-08-24T03:59:29.415Z,77.15
2022-08-24T04:00:29.605Z,77.09
2022-08-24T04:01:29.782Z,76.95
2022-08-24T04:02:32.895Z,76.96
2022-08-24T04:03:29.938Z,76.99
2022-08-24T04:04:30.057Z,77.06
2022-08-24T04:05:30.252Z,77.07
2022-08-24T04:06:30.320Z,77.17
2022-08-24T04:07:30.403Z,77.25
2022-08-24T04:08:30.554Z,77.28
2022-08-24T04:09:30.656Z,77.32
2022-08-24T04:10:31.035Z,77.37
2022-08-24T04:11:30.883Z,77.40
2022-08-24T04:12:30.985Z,77.41
2022-08-24T04:13:31.135Z,77.43
2022-08-24T04:14:31.223Z,77.51
2022-08-24T04:15:31.484Z,77.59
2022-08-24T04:16:31.648Z,77.67
2022-08-24T04:17:31.661Z,77.73
2022-08-24T04:18:31.796Z,77.75
2022-08-24T04:19:31.887Z,77.77
2022-08-24T04:20:32.033Z,77.79
2022-08-24T04:21:32.092Z,77.79
2022-08-24T04:22:32.186Z,77.86
2022-08-24T04:23:46.511Z,77.82
2022-08-24T04:24:33.390Z,77.80
2022-08-24T04:25:32.594Z,77.80
2022-08-24T04:26:45.730Z,77.77
2022-08-24T04:27:33.800Z,77.70
2022-08-24T04:28:32.949Z,77.68
2022-08-24T04:29:33.030Z,77.67
2022-08-24T04:30:33.179Z,77.70
2022-08-24T04:31:33.295Z,77.82
2022-08-24T04:32:33.361Z,78.00
2022-08-24T04:33:33.466Z,78.14
2022-08-24T04:34:33.609Z,78.28
2022-08-24T04:35:33.807Z,78.42
2022-08-24T04:36:33.933Z,78.57
2022-08-24T04:37:34.040Z,78.72
2022-08-24T04:38:34.151Z,78.81
2022-08-24T04:39:34.329Z,78.88
2022-08-24T04:40:34.730Z,78.92
2022-08-24T04:41:34.548Z,79.06
2022-08-24T04:42:34.671Z,79.12
2022-08-24T04:43:34.823Z,79.18
2022-08-24T04:44:34.937Z,79.13
2022-08-24T04:45:35.173Z,79.06
2022-08-24T04:46:35.344Z,78.94
2022-08-24T04:47:35.328Z,78.87
2022-08-24T04:48:35.427Z,78.75
2022-08-24T04:49:35.537Z,78.63
2022-08-24T04:50:35.757Z,78.58
2022-08-24T04:51:36.550Z,78.52
2022-08-24T04:52:35.945Z,78.53
2022-08-24T04:53:36.096Z,78.63
2022-08-24T04:54:36.235Z,78.50
2022-08-24T04:55:36.446Z,78.31
2022-08-24T04:56:36.445Z,78.17
2022-08-24T04:57:36.534Z,78.15
2022-08-24T04:58:36.642Z,78.13
2022-08-24T04:59:36.726Z,78.07
2022-08-24T05:00:36.921Z,78.16
2022-08-24T05:01:37.015Z,78.13
2022-08-24T05:02:40.826Z,78.12
2022-08-24T05:03:38.243Z,78.26
2022-08-24T05:04:37.412Z,78.04
2022-08-24T05:05:37.544Z,78.04
2022-08-24T05:06:37.655Z,78.14
2022-08-24T05:07:38.030Z,78.32
2022-08-24T05:08:37.882Z,78.29
2022-08-24T05:09:38.012Z,78.13
2022-08-24T05:10:38.162Z,78.44
2022-08-24T05:11:38.273Z,78.18
2022-08-24T05:12:38.542Z,78.06
2022-08-24T05:13:38.533Z,78.48
2022-08-24T05:14:38.632Z,78.29
2022-08-24T05:15:38.863Z,78.76
2022-08-24T05:16:38.956Z,78.62
2022-08-24T05:17:39.992Z,78.44
2022-08-24T05:18:39.265Z,78.58
2022-08-24T05:19:39.251Z,78.47
2022-08-24T05:20:39.408Z,78.28
2022-08-24T05:21:40.094Z,78.08
2022-08-24T05:22:39.591Z,77.86
2022-08-24T05:23:39.800Z,77.90
2022-08-24T05:24:39.830Z,78.04
2022-08-24T05:25:40.002Z,78.03
2022-08-24T05:26:40.190Z,77.93
2022-08-24T05:27:40.203Z,78.10
2022-08-24T05:28:40.537Z,78.31
2022-08-24T05:29:40.471Z,78.30
2022-08-24T05:30:42.746Z,78.33
2022-08-24T05:31:40.715Z,78.36
2022-08-24T05:32:40.860Z,78.04
2022-08-24T05:33:40.990Z,77.89
2022-08-24T05:34:41.165Z,78.13
2022-08-24T05:35:43.850Z,77.72
2022-08-24T05:36:41.351Z,77.64
2022-08-24T05:37:41.512Z,78.18
2022-08-24T05:38:41.952Z,77.99
2022-08-24T05:39:41.725Z,77.77
2022-08-24T05:40:41.868Z,77.03
2022-08-24T05:41:44.163Z,77.09
2022-08-24T05:42:42.088Z,77.23
2022-08-24T05:43:42.238Z,76.71
2022-08-24T05:44:42.337Z,77.21
2022-08-24T05:45:42.427Z,75.84
2022-08-24T05:46:42.740Z,76.72
2022-08-24T05:47:42.716Z,76.50
2022-08-24T05:48:42.816Z,76.13
2022-08-24T05:49:43.978Z,75.69
2022-08-24T05:50:43.047Z,75.23
2022-08-24T05:51:43.335Z,75.60
2022-08-24T05:52:43.336Z,74.93
2022-08-24T05:53:43.426Z,74.66
2022-08-24T05:54:43.566Z,73.70
2022-08-24T05:55:44.528Z,73.70
2022-08-24T05:56:43.876Z,73.94
2022-08-24T05:57:43.915Z,73.68
2022-08-24T05:58:44.055Z,73.70
2022-08-24T05:59:44.194Z,73.03
2022-08-24T06:00:44.346Z,72.65
2022-08-24T06:01:45.555Z,71.98
2022-08-24T06:02:44.622Z,71.46
2022-08-24T06:03:44.685Z,71.22
2022-08-24T06:04:44.777Z,71.18
2022-08-24T06:05:44.934Z,70.18
2022-08-24T06:06:45.159Z,70.63
2022-08-24T06:07:45.135Z,70.44
2022-08-24T06:08:45.273Z,69.86
2022-08-24T06:09:45.405Z,69.73
2022-08-24T06:10:45.543Z,69.70
2022-08-24T06:11:45.743Z,70.17
2022-08-24T06:12:45.794Z,69.38
2022-08-24T06:13:45.932Z,69.49
2022-08-24T06:14:47.042Z,68.48
2022-08-24T06:15:59.676Z,67.77
2022-08-24T06:16:47.553Z,68.25
2022-08-24T06:17:46.469Z,68.30
2022-08-24T06:18:46.522Z,68.08
2022-08-24T06:19:46.652Z,67.41
2022-08-24T06:20:46.770Z,66.52
2022-08-24T06:21:46.890Z,66.98
2022-08-24T06:22:47.154Z,67.11
2022-08-24T06:23:47.145Z,66.47
2022-08-24T06:24:47.253Z,66.54
2022-08-24T06:25:47.382Z,65.72
2022-08-24T06:26:49.096Z,65.50
2022-08-24T06:27:47.713Z,66.24
2022-08-24T06:28:47.979Z,64.93
2022-08-24T06:29:47.852Z,63.81
2022-08-24T06:30:48.009Z,65.14
2022-08-24T06:31:48.157Z,64.64
2022-08-24T06:32:49.312Z,65.02
2022-08-24T06:33:48.353Z,65.36
2022-08-24T06:34:48.450Z,63.99
2022-08-24T06:35:48.572Z,62.04
2022-08-24T06:36:48.770Z,63.43
2022-08-24T06:37:48.881Z,62.74
2022-08-24T06:38:49.112Z,63.06
2022-08-24T06:39:49.125Z,61.93
2022-08-24T06:40:50.231Z,62.06
2022-08-24T06:41:49.321Z,61.99
2022-08-24T06:42:49.521Z,62.51
2022-08-24T06:43:49.592Z,62.20
2022-08-24T06:44:49.928Z,62.48
2022-08-24T06:45:49.820Z,61.92
2022-08-24T06:46:50.005Z,61.08
2022-08-24T06:47:50.217Z,61.82
2022-08-24T06:48:50.232Z,60.52
2022-08-24T06:49:50.324Z,60.59
2022-08-24T06:50:50.423Z,59.31
2022-08-24T06:51:51.039Z,58.36
2022-08-24T06:52:50.750Z,58.15
2022-08-24T06:53:50.755Z,58.95
2022-08-24T06:54:50.888Z,62.03
2022-08-24T06:55:51.150Z,61.17
2022-08-24T06:56:51.149Z,58.58
2022-08-24T06:57:52.687Z,57.92
2022-08-24T06:58:51.391Z,60.36
2022-08-24T06:59:51.509Z,60.45
2022-08-24T07:00:51.800Z,59.65
2022-08-24T07:01:51.810Z,59.20
2022-08-24T07:02:51.918Z,58.99
2022-08-24T07:03:52.139Z,58.66
2022-08-24T07:04:52.129Z,59.20
2022-08-24T07:05:52.378Z,58.14
2022-08-24T07:06:52.380Z,56.57
2022-08-24T07:07:52.482Z,54.96
2022-08-24T07:08:52.689Z,55.31
2022-08-24T07:09:52.740Z,55.99
2022-08-24T07:10:52.838Z,54.49
2022-08-24T07:11:53.048Z,56.61
2022-08-24T07:12:53.050Z,58.48
2022-08-24T07:13:53.218Z,56.89
2022-08-24T07:14:53.279Z,57.90
2022-08-24T07:15:53.436Z,57.69
2022-08-24T07:16:53.553Z,57.33
2022-08-24T07:17:53.744Z,54.29
2022-08-24T07:18:53.961Z,54.17
2022-08-24T07:19:53.878Z,54.65
2022-08-24T07:20:54.028Z,56.55
2022-08-24T07:21:54.198Z,52.81
2022-08-24T07:22:54.607Z,52.57
2022-08-24T07:23:54.443Z,52.70
2022-08-24T07:24:54.586Z,52.89
2022-08-24T07:25:56.207Z,53.44
2022-08-24T07:26:54.876Z,54.45
2022-08-24T07:27:55.056Z,53.76
2022-08-24T07:28:55.098Z,53.86
2022-08-24T07:30:16.286Z,52.73
2022-08-24T07:30:56.360Z,52.25
2022-08-24T07:31:55.428Z,54.56
2022-08-24T07:32:55.639Z,55.06
2022-08-24T07:33:55.700Z,54.80
2022-08-24T07:34:55.806Z,51.45
2022-08-24T07:35:56.281Z,51.32
2022-08-24T07:36:56.052Z,51.27
2022-08-24T07:37:56.267Z,53.31
2022-08-24T07:38:56.427Z,52.19
2022-08-24T07:39:56.421Z,53.03
2022-08-24T07:41:20.168Z,53.78
2022-08-24T07:42:16.040Z,52.88
2022-08-24T07:42:57.837Z,51.79
2022-08-24T07:43:56.866Z,54.51
2022-08-24T07:44:57.016Z,50.88
2022-08-24T07:45:57.213Z,50.19
2022-08-24T07:46:57.323Z,49.54
2022-08-24T07:48:05.108Z,50.01
2022-08-24T07:49:11.561Z,52.00
2022-08-24T07:49:58.672Z,50.05
2022-08-24T07:50:57.827Z,49.94
2022-08-24T07:51:57.950Z,49.32
2022-08-24T07:52:58.071Z,48.11
2022-08-24T07:53:58.127Z,52.42
2022-08-24T07:54:58.286Z,47.53
2022-08-24T07:55:58.335Z,48.03
2022-08-24T07:56:58.508Z,48.84
2022-08-24T07:57:58.605Z,49.12
2022-08-24T07:58:58.766Z,49.03
2022-08-24T07:59:58.956Z,49.45
2022-08-24T08:00:58.995Z,51.04
2022-08-24T08:01:59.198Z,49.36
2022-08-24T08:02:59.342Z,48.91
2022-08-24T08:03:59.415Z,48.28
2022-08-24T08:04:59.574Z,49.18
2022-08-24T08:05:59.633Z,48.92
2022-08-24T08:06:59.796Z,47.77
2022-08-24T08:07:59.958Z,49.96
2022-08-24T08:09:00.025Z,46.89
2022-08-24T08:10:00.187Z,47.39
2022-08-24T08:11:00.277Z,50.74
2022-08-24T08:12:00.394Z,47.02
2022-08-24T08:13:00.484Z,49.69
2022-08-24T08:14:00.659Z,46.22
2022-08-24T08:15:00.844Z,45.75
2022-08-24T08:16:01.603Z,47.42
2022-08-24T08:17:01.004Z,47.27
2022-08-24T08:18:01.122Z,47.43
2022-08-24T08:19:09.798Z,48.40
2022-08-24T08:20:02.584Z,48.39
2022-08-24T08:21:01.444Z,45.28
2022-08-24T08:22:01.620Z,45.58
2022-08-24T08:23:01.726Z,45.89
2022-08-24T08:24:01.834Z,46.95
2022-08-24T08:25:02.104Z,47.09
2022-08-24T08:26:02.055Z,48.35
2022-08-24T08:27:02.223Z,48.96
2022-08-24T08:28:08.061Z,48.25
2022-08-24T08:29:03.433Z,47.93
2022-08-24T08:30:02.633Z,47.59
2022-08-24T08:31:02.807Z,46.97
2022-08-24T08:32:02.842Z,46.91
2022-08-24T08:33:03.069Z,47.56
2022-08-24T08:34:03.061Z,47.09
2022-08-24T08:35:03.221Z,46.32
2022-08-24T08:36:03.313Z,47.07
2022-08-24T08:37:03.430Z,46.47
2022-08-24T08:38:03.796Z,46.49
2022-08-24T08:39:03.692Z,44.38
2022-08-24T08:40:03.886Z,45.00
2022-08-24T08:41:03.981Z,46.68
2022-08-24T08:42:05.067Z,45.92
2022-08-24T08:43:04.162Z,46.56
2022-08-24T08:44:04.313Z,46.29
2022-08-24T08:45:04.461Z,46.79
2022-08-24T08:46:04.745Z,46.70
2022-08-24T08:47:04.761Z,44.33
2022-08-24T08:48:04.933Z,44.38
2022-08-24T08:49:04.981Z,44.56
2022-08-24T08:50:05.104Z,44.76
2022-08-24T08:51:06.188Z,44.22
2022-08-24T08:52:06.411Z,46.21
2022-08-24T08:53:05.737Z,43.70
2022-08-24T08:54:05.560Z,44.96
2022-08-24T08:55:05.663Z,43.44
2022-08-24T08:56:05.870Z,44.16
2022-08-24T08:57:05.890Z,42.03
2022-08-24T08:58:06.000Z,43.74
2022-08-24T08:59:06.109Z,42.95
2022-08-24T09:00:06.600Z,42.16
2022-08-24T09:01:06.401Z,45.27
2022-08-24T09:02:06.619Z,42.93
2022-08-24T09:03:06.658Z,42.44
2022-08-24T09:04:06.701Z,42.43
2022-08-24T09:05:06.830Z,42.70
2022-08-24T09:06:06.941Z,44.34
2022-08-24T09:07:07.156Z,42.05
2022-08-24T09:08:07.198Z,42.10
2022-08-24T09:09:07.259Z,42.99
2022-08-24T09:10:07.363Z,41.73
2022-08-24T09:11:07.458Z,39.99
2022-08-24T09:12:07.860Z,39.92
2022-08-24T09:13:07.757Z,39.55
2022-08-24T09:14:07.882Z,39.04
2022-08-24T09:15:07.969Z,38.84
2022-08-24T09:16:10.675Z,41.48
2022-08-24T09:17:12.713Z,40.20
2022-08-24T09:18:08.347Z,39.72
2022-08-24T09:19:08.456Z,39.55
2022-08-24T09:20:08.555Z,38.16
2022-08-24T09:21:08.666Z,38.69
2022-08-24T09:22:08.825Z,39.08
2022-08-24T09:23:08.937Z,39.39
2022-08-24T09:24:08.996Z,38.50
2022-08-24T09:25:09.105Z,37.98
2022-08-24T09:26:09.200Z,38.12
2022-08-24T09:27:09.537Z,39.30
2022-08-24T09:28:09.473Z,38.97
2022-08-24T09:29:09.687Z,37.56
2022-08-24T09:30:09.729Z,37.25
2022-08-24T09:31:09.958Z,37.07
2022-08-24T09:32:10.807Z,39.93
2022-08-24T09:33:10.508Z,40.79
2022-08-24T09:34:10.265Z,38.92
2022-08-24T09:35:10.364Z,37.85
2022-08-24T09:36:10.474Z,37.46
2022-08-24T09:37:10.743Z,38.43
2022-08-24T09:38:10.681Z,37.59
2022-08-24T09:39:10.991Z,41.06
2022-08-24T09:40:11.000Z,37.51
2022-08-24T09:41:11.094Z,38.49
2022-08-24T09:42:11.220Z,37.17
2022-08-24T09:43:11.332Z,37.50
2022-08-24T09:44:11.490Z,37.94
2022-08-24T09:45:11.573Z,36.74
2022-08-24T09:46:11.780Z,37.61
2022-08-24T09:47:11.891Z,37.98
2022-08-24T09:48:16.043Z,39.60
2022-08-24T09:49:14.273Z,39.39
2022-08-24T09:50:12.201Z,37.71
2022-08-24T09:51:12.362Z,37.47
2022-08-24T09:52:12.481Z,38.81
2022-08-24T09:53:12.601Z,37.66
2022-08-24T09:54:12.795Z,38.78
2022-08-24T09:55:12.830Z,39.40
2022-08-24T09:56:12.998Z,37.48
2022-08-24T09:57:14.187Z,38.18
2022-08-24T09:58:13.222Z,37.36
2022-08-24T09:59:13.400Z,37.09
2022-08-24T10:00:13.451Z,36.94
2022-08-24T10:01:13.599Z,37.52
2022-08-24T10:02:13.737Z,38.11
2022-08-24T10:03:13.810Z,37.92
2022-08-24T10:04:14.209Z,39.02
2022-08-24T10:05:14.235Z,39.55
2022-08-24T10:06:14.228Z,38.63
2022-08-24T10:07:14.279Z,39.53
2022-08-24T10:08:14.389Z,39.57
2022-08-24T10:09:14.648Z,39.91
2022-08-24T10:10:14.649Z,41.10
2022-08-24T10:11:14.759Z,40.68
2022-08-24T10:12:14.859Z,40.23
2022-08-24T10:13:14.967Z,40.59
2022-08-24T10:14:15.209Z,40.99
2022-08-24T10:15:15.200Z,41.26
2022-08-24T10:16:15.352Z,43.34
2022-08-24T10:17:15.448Z,42.77
2022-08-24T10:18:15.728Z,42.31
2022-08-24T10:19:15.808Z,43.08
2022-08-24T10:20:15.878Z,41.35
2022-08-24T10:21:15.940Z,42.50
2022-08-24T10:22:16.047Z,41.91
2022-08-24T10:23:16.151Z,41.61
2022-08-24T10:24:16.400Z,42.41
2022-08-24T10:25:16.388Z,42.97
2022-08-24T10:26:16.578Z,41.53
2022-08-24T10:27:16.708Z,41.45
2022-08-24T10:28:16.798Z,41.75
2022-08-24T10:29:17.069Z,42.02
2022-08-24T10:30:23.629Z,41.40
2022-08-24T10:31:18.269Z,42.60
2022-08-24T10:32:17.339Z,42.37
2022-08-24T10:33:17.443Z,42.27
2022-08-24T10:34:17.606Z,42.09
2022-08-24T10:35:17.646Z,42.20
2022-08-24T10:36:20.859Z,42.64
2022-08-24T10:37:17.922Z,41.42
2022-08-24T10:38:18.027Z,42.30
2022-08-24T10:39:18.245Z,41.43
2022-08-24T10:40:18.335Z,40.84
2022-08-24T10:41:18.434Z,40.28
2022-08-24T10:42:18.536Z,40.12
2022-08-24T10:43:18.807Z,39.85
2022-08-24T10:44:19.786Z,39.97
2022-08-24T10:45:18.987Z,40.77
2022-08-24T10:46:19.044Z,41.08
2022-08-24T10:47:19.165Z,41.76
2022-08-24T10:48:19.263Z,41.31
2022-08-24T10:49:19.425Z,41.27
2022-08-24T10:50:19.795Z,41.46
2022-08-24T10:51:19.624Z,40.38
2022-08-24T10:52:19.745Z,39.56
2022-08-24T10:53:19.856Z,40.19
2022-08-24T10:54:19.973Z,39.29
2022-08-24T10:55:20.284Z,41.63
2022-08-24T10:56:20.196Z,40.42
2022-08-24T10:57:20.295Z,39.27
2022-08-24T10:58:20.395Z,38.37
2022-08-24T10:59:20.546Z,37.78
2022-08-24T11:00:22.828Z,37.77
2022-08-24T11:01:20.909Z,38.49
2022-08-24T11:02:21.001Z,38.26
2022-08-24T11:03:21.043Z,39.24
2022-08-24T11:04:22.164Z,37.46
2022-08-24T11:05:21.255Z,37.18
2022-08-24T11:06:21.492Z,37.39
2022-08-24T11:07:21.522Z,37.23
2022-08-24T11:08:21.634Z,38.33
2022-08-24T11:09:21.740Z,37.82
2022-08-24T11:10:21.851Z,36.37
2022-08-24T11:11:23.022Z,36.72
2022-08-24T11:12:22.111Z,36.31
2022-08-24T11:13:22.213Z,36.37
2022-08-24T11:14:22.352Z,35.30
2022-08-24T11:15:22.471Z,34.25
2022-08-24T11:16:22.655Z,37.09
2022-08-24T11:17:22.883Z,36.07
2022-08-24T11:18:22.830Z,35.45
2022-08-24T11:19:22.949Z,37.01
2022-08-24T11:20:23.039Z,35.56
2022-08-24T11:21:23.139Z,36.74
2022-08-24T11:22:23.492Z,35.46
2022-08-24T11:23:23.400Z,34.90
2022-08-24T11:24:23.568Z,35.88
2022-08-24T11:25:23.687Z,36.08
2022-08-24T11:26:23.797Z,35.94
2022-08-24T11:27:24.017Z,33.99
2022-08-24T11:28:24.027Z,34.84
2022-08-24T11:29:24.131Z,37.04
2022-08-24T11:30:24.290Z,34.07
2022-08-24T11:31:24.431Z,34.53
2022-08-24T11:32:25.196Z,34.75
2022-08-24T11:33:24.725Z,35.24
2022-08-24T11:34:24.779Z,36.90
2022-08-24T11:35:24.876Z,34.86
2022-08-24T11:36:25.043Z,34.64
2022-08-24T11:37:29.134Z,33.70
2022-08-24T11:38:26.405Z,34.72
2022-08-24T11:39:25.385Z,33.50
2022-08-24T11:40:25.569Z,34.03
2022-08-24T11:41:25.614Z,33.04
2022-08-24T11:42:27.411Z,32.68
2022-08-24T11:43:25.833Z,33.18
2022-08-24T11:44:26.122Z,34.36
2022-08-24T11:45:26.114Z,33.12
2022-08-24T11:46:26.275Z,33.56
2022-08-24T11:47:26.373Z,33.53
2022-08-24T11:48:27.442Z,32.88
2022-08-24T11:49:26.675Z,36.79
2022-08-24T11:50:26.732Z,36.28
2022-08-24T11:51:26.832Z,32.94
2022-08-24T11:52:26.962Z,32.91
2022-08-24T11:53:27.061Z,36.71
2022-08-24T11:54:27.320Z,36.47
2022-08-24T11:55:27.327Z,34.56
2022-08-24T11:56:28.440Z,33.72
2022-08-24T11:57:27.590Z,35.46
2022-08-24T11:58:27.730Z,33.35
2022-08-24T11:59:28.000Z,32.45
2022-08-24T12:00:27.958Z,34.24
2022-08-24T12:01:28.070Z,33.37
2022-08-24T12:02:28.305Z,34.32
2022-08-24T12:03:28.301Z,33.71
2022-08-24T12:04:28.459Z,31.86
2022-08-24T12:05:28.620Z,31.39
2022-08-24T12:06:32.242Z,32.77
2022-08-24T12:07:29.031Z,32.43
2022-08-24T12:08:28.931Z,32.10
2022-08-24T12:09:29.186Z,34.28
2022-08-24T12:10:32.641Z,34.77
2022-08-24T12:11:29.311Z,33.35
2022-08-24T12:12:29.442Z,34.75
2022-08-24T12:13:29.539Z,36.05
2022-08-24T12:14:29.721Z,35.36
2022-08-24T12:15:29.778Z,34.70
2022-08-24T12:16:30.060Z,32.96
2022-08-24T12:17:30.018Z,37.13
2022-08-24T12:18:30.139Z,33.46
2022-08-24T12:19:30.260Z,33.02
2022-08-24T12:20:30.351Z,34.93
2022-08-24T12:21:30.638Z,33.02
2022-08-24T12:22:30.677Z,31.58
2022-08-24T12:23:30.757Z,32.27
2022-08-24T12:24:30.856Z,32.53
2022-08-24T12:25:30.977Z,33.23
2022-08-24T12:26:31.107Z,32.19
2022-08-24T12:27:31.341Z,32.89
2022-08-24T12:28:31.344Z,33.72
2022-08-24T12:29:31.438Z,33.59
2022-08-24T12:30:31.553Z,33.42
2022-08-24T12:31:31.704Z,33.84
2022-08-24T12:32:31.907Z,33.92
2022-08-24T12:33:31.897Z,33.35
2022-08-24T12:34:32.015Z,34.02
2022-08-24T12:35:32.136Z,34.96
2022-08-24T12:36:32.236Z,34.84
2022-08-24T12:37:32.535Z,38.89
2022-08-24T12:38:32.546Z,34.22
2022-08-24T12:39:32.656Z,34.26
2022-08-24T12:40:32.806Z,32.72
2022-08-24T12:41:32.916Z,33.32
2022-08-24T12:42:33.087Z,31.97
2022-08-24T12:43:33.250Z,35.20
2022-08-24T12:44:33.236Z,32.15
2022-08-24T12:45:33.342Z,31.61
2022-08-24T12:46:33.478Z,31.46
2022-08-24T12:47:33.572Z,33.50
2022-08-24T12:48:33.853Z,33.04
2022-08-24T12:49:33.962Z,33.13
2022-08-24T12:50:33.888Z,32.01
2022-08-24T12:51:34.002Z,30.78
2022-08-24T12:52:34.118Z,31.39
2022-08-24T12:53:34.275Z,32.39